Time;durP1;ratioP1;P1;durP2;ratioP2;P2;SDS_P1;SDS_P2;PMS_P1;PMS_P2;Temp;Humidity;BMP_temperature;BMP_pressure;BME280_temperature;BME280_humidity;BME280_pressure;Samples;Min_cycle;Max_cycle;Signal;HPM_P1;HPM_P2
2023/10/31 00:00:20;;;;;;;1.80;1.33;;;11.10;99.90;;;;;;5053550;28;20051;-62
2023/10/31 00:02:46;;;;;;;1.60;1.50;;;11.00;99.90;;;;;;5053805;28;20052;-62
2023/10/31 00:05:12;;;;;;;2.90;1.50;;;11.00;99.90;;;;;;5053464;28;20051;-62
2023/10/31 00:07:37;;;;;;;1.42;1.25;;;11.00;99.90;;;;;;5070942;28;20041;-62
2023/10/31 00:10:03;;;;;;;1.25;1.15;;;11.00;99.90;;;;;;5052360;28;20032;-62
2023/10/31 00:12:29;;;;;;;0.82;0.82;;;11.00;99.90;;;;;;5070952;28;20028;-62
2023/10/31 00:14:54;;;;;;;0.98;0.80;;;10.90;99.90;;;;;;5053419;28;20067;-62
2023/10/31 00:17:20;;;;;;;0.80;0.80;;;10.90;99.90;;;;;;5036567;28;20048;-63
2023/10/31 00:19:45;;;;;;;1.05;0.80;;;10.80;99.90;;;;;;5063202;28;20090;-62
2023/10/31 00:22:11;;;;;;;1.85;0.90;;;10.80;99.90;;;;;;5073488;28;20032;-62
2023/10/31 00:24:37;;;;;;;0.90;0.90;;;10.80;99.90;;;;;;5071786;28;20059;-62
2023/10/31 00:27:02;;;;;;;3.30;1.10;;;10.80;99.90;;;;;;5053376;28;20119;-62
2023/10/31 00:29:28;;;;;;;1.52;1.00;;;10.70;99.90;;;;;;5052418;28;20494;-63
2023/10/31 00:31:54;;;;;;;1.00;0.85;;;10.80;99.90;;;;;;5053484;28;20097;-62
2023/10/31 00:34:20;;;;;;;0.90;0.75;;;10.70;99.90;;;;;;5053287;28;20119;-62
2023/10/31 00:36:46;;;;;;;1.23;0.60;;;10.70;99.90;;;;;;5053065;28;20396;-62
2023/10/31 00:39:11;;;;;;;0.60;0.60;;;10.70;99.90;;;;;;5052940;28;20048;-62
2023/10/31 00:41:39;;;;;;;0.60;0.57;;;10.60;99.90;;;;;;5052609;28;20041;-62
2023/10/31 00:44:04;;;;;;;0.70;0.50;;;10.60;99.90;;;;;;5052866;28;20076;-62
2023/10/31 00:46:30;;;;;;;2.05;0.63;;;10.60;99.90;;;;;;5053336;28;20530;-62
2023/10/31 00:48:56;;;;;;;1.30;0.60;;;10.60;99.90;;;;;;5052935;28;20066;-63
2023/10/31 00:51:23;;;;;;;1.30;0.73;;;10.50;99.90;;;;;;5052494;28;20166;-63
2023/10/31 00:53:49;;;;;;;0.98;0.60;;;10.50;99.90;;;;;;5052902;28;20391;-62
2023/10/31 00:56:15;;;;;;;0.60;0.40;;;10.50;99.90;;;;;;5052630;28;20040;-63
2023/10/31 00:58:40;;;;;;;2.70;0.63;;;10.40;99.90;;;;;;5074224;28;20036;-62
2023/10/31 01:01:06;;;;;;;2.25;0.80;;;10.30;99.90;;;;;;5052318;28;20388;-62
2023/10/31 01:03:31;;;;;;;2.40;0.60;;;10.20;99.90;;;;;;5052818;28;20037;-62
2023/10/31 01:05:57;;;;;;;0.93;0.40;;;10.20;99.90;;;;;;5052297;28;20144;-62
2023/10/31 01:08:24;;;;;;;1.65;0.55;;;10.10;99.90;;;;;;5052656;28;20072;-62
2023/10/31 01:10:50;;;;;;;2.22;0.80;;;10.00;99.90;;;;;;5052332;28;20091;-62
2023/10/31 01:13:15;;;;;;;2.75;0.60;;;10.00;99.90;;;;;;5052315;28;20052;-62
2023/10/31 01:15:41;;;;;;;2.05;0.50;;;10.00;99.90;;;;;;5069958;28;20044;-62
2023/10/31 01:18:07;;;;;;;3.25;0.60;;;9.90;99.90;;;;;;5070392;28;20133;-62
2023/10/31 01:20:32;;;;;;;2.00;0.55;;;9.90;99.90;;;;;;5052702;28;20040;-62
2023/10/31 01:22:58;;;;;;;2.55;0.68;;;9.90;99.90;;;;;;5070032;28;20038;-62
2023/10/31 01:25:23;;;;;;;2.40;0.80;;;9.80;99.90;;;;;;5055231;28;20039;-62
2023/10/31 01:27:49;;;;;;;3.80;0.70;;;9.80;99.90;;;;;;5072101;28;20075;-62
2023/10/31 01:30:15;;;;;;;2.75;0.70;;;9.80;99.90;;;;;;5071942;28;20123;-62
2023/10/31 01:32:40;;;;;;;4.53;0.50;;;9.80;99.90;;;;;;5065626;28;20050;-62
2023/10/31 01:35:06;;;;;;;2.53;0.50;;;9.80;99.90;;;;;;5052378;28;20108;-62
2023/10/31 01:37:32;;;;;;;1.77;0.65;;;9.80;99.90;;;;;;5052278;28;20048;-62
2023/10/31 01:39:58;;;;;;;1.30;0.60;;;9.80;99.90;;;;;;5052121;28;20485;-62
2023/10/31 01:42:24;;;;;;;1.90;0.80;;;9.80;99.90;;;;;;5069288;28;20072;-62
2023/10/31 01:44:49;;;;;;;1.75;0.68;;;9.80;99.90;;;;;;5051319;28;20116;-62
2023/10/31 01:47:15;;;;;;;2.10;0.95;;;9.90;99.90;;;;;;5051938;28;20120;-63
2023/10/31 01:49:41;;;;;;;3.85;1.25;;;9.80;99.90;;;;;;5051791;28;20040;-62
2023/10/31 01:52:07;;;;;;;4.32;1.00;;;9.80;99.90;;;;;;5051863;28;20036;-62
2023/10/31 01:54:33;;;;;;;4.35;0.80;;;9.80;99.90;;;;;;5051994;28;20383;-62
2023/10/31 01:57:00;;;;;;;3.22;0.70;;;9.80;99.90;;;;;;5052204;28;20433;-62
2023/10/31 01:59:27;;;;;;;2.55;0.90;;;9.80;99.90;;;;;;5080024;28;20491;-62
2023/10/31 02:01:54;;;;;;;3.67;0.60;;;9.80;99.90;;;;;;5090190;28;20059;-62
2023/10/31 02:04:20;;;;;;;5.40;0.75;;;9.80;99.90;;;;;;5086046;28;20134;-62
2023/10/31 02:06:45;;;;;;;3.85;0.88;;;9.80;99.90;;;;;;5034796;28;20223;-62
2023/10/31 02:09:11;;;;;;;3.45;0.73;;;9.80;99.90;;;;;;5051882;28;20086;-62
2023/10/31 02:11:37;;;;;;;4.97;0.90;;;9.80;99.90;;;;;;5069654;28;20087;-62
2023/10/31 02:14:03;;;;;;;3.13;0.70;;;9.80;99.90;;;;;;5051929;28;20079;-62
2023/10/31 02:16:28;;;;;;;4.63;1.00;;;9.80;99.90;;;;;;5069585;28;20044;-62
2023/10/31 02:18:54;;;;;;;2.50;0.73;;;9.80;99.90;;;;;;5069884;28;20043;-62
2023/10/31 02:21:20;;;;;;;4.75;1.20;;;9.80;99.90;;;;;;5069696;28;20399;-62
2023/10/31 02:23:58;;;;;;;3.20;1.10;;;9.80;99.90;;;;;;5034851;28;20044;-62
2023/10/31 02:26:31;;;;;;;3.63;1.00;;;9.80;99.90;;;;;;5051161;28;20114;-62
2023/10/31 02:28:57;;;;;;;5.82;1.38;;;9.80;99.90;;;;;;5051807;28;20127;-62
2023/10/31 02:31:23;;;;;;;4.30;1.27;;;9.70;99.90;;;;;;5051347;28;20124;-62
2023/10/31 02:33:48;;;;;;;4.68;1.42;;;9.70;99.90;;;;;;5069521;28;20037;-62
2023/10/31 02:36:14;;;;;;;4.32;1.30;;;9.70;99.90;;;;;;5051260;28;20127;-62
2023/10/31 02:38:39;;;;;;;5.68;1.73;;;9.70;99.90;;;;;;5051681;28;20112;-62
2023/10/31 02:41:05;;;;;;;5.95;1.50;;;9.60;99.90;;;;;;5051578;28;20032;-62
2023/10/31 02:43:31;;;;;;;5.05;1.60;;;9.60;99.90;;;;;;5051921;28;20129;-62
2023/10/31 02:45:56;;;;;;;6.38;1.67;;;9.60;99.90;;;;;;5051777;28;20076;-62
2023/10/31 02:48:24;;;;;;;3.65;1.65;;;9.60;99.90;;;;;;5069064;28;20040;-62
2023/10/31 02:50:51;;;;;;;4.22;1.85;;;9.60;99.90;;;;;;5051579;28;20044;-62
2023/10/31 02:53:18;;;;;;;5.05;1.65;;;9.60;99.90;;;;;;5053601;28;20040;-63
2023/10/31 02:55:44;;;;;;;3.92;1.80;;;9.60;99.90;;;;;;5054593;28;20123;-62
2023/10/31 02:58:10;;;;;;;10.85;1.80;;;9.60;99.90;;;;;;5054662;28;20090;-62
2023/10/31 03:00:36;;;;;;;6.05;1.88;;;9.60;99.90;;;;;;5054963;28;20041;-62
2023/10/31 03:03:02;;;;;;;5.28;1.58;;;9.60;99.90;;;;;;5072814;28;20051;-62
2023/10/31 03:05:28;;;;;;;7.43;2.20;;;9.60;99.90;;;;;;5054654;28;20044;-62
2023/10/31 03:07:54;;;;;;;5.70;2.10;;;9.60;99.90;;;;;;5072653;28;20051;-62
2023/10/31 03:10:21;;;;;;;3.78;2.08;;;9.60;99.90;;;;;;5055023;28;20115;-62
2023/10/31 03:12:46;;;;;;;7.30;2.20;;;9.60;99.90;;;;;;5037480;28;20076;-62
2023/10/31 03:15:12;;;;;;;8.45;2.40;;;9.60;99.90;;;;;;5054468;28;20443;-62
2023/10/31 03:17:38;;;;;;;5.32;2.50;;;9.60;99.90;;;;;;5072600;28;20089;-62
2023/10/31 03:20:04;;;;;;;7.38;3.00;;;9.60;99.90;;;;;;5054402;28;20480;-62
2023/10/31 03:22:30;;;;;;;5.00;2.20;;;9.70;99.90;;;;;;5072314;28;20082;-62
2023/10/31 03:24:55;;;;;;;6.28;2.63;;;9.70;99.90;;;;;;5054856;28;20900;-62
2023/10/31 03:27:21;;;;;;;4.90;2.47;;;9.70;99.90;;;;;;5074058;28;20036;-62
2023/10/31 03:29:47;;;;;;;5.45;2.60;;;9.70;99.90;;;;;;5086672;28;20051;-62
2023/10/31 03:32:12;;;;;;;6.60;2.80;;;9.80;99.90;;;;;;5054206;28;20040;-62
2023/10/31 03:34:38;;;;;;;5.30;2.58;;;9.80;99.90;;;;;;5054305;28;20484;-62
2023/10/31 03:37:05;;;;;;;6.47;2.50;;;9.70;99.90;;;;;;5054653;28;20044;-62
2023/10/31 03:39:30;;;;;;;5.95;2.08;;;9.80;99.90;;;;;;5072275;28;20039;-62
2023/10/31 03:41:56;;;;;;;5.18;2.05;;;9.80;99.90;;;;;;5036804;28;20044;-62
2023/10/31 03:44:21;;;;;;;4.82;2.00;;;9.70;99.90;;;;;;5057788;28;20379;-62
2023/10/31 03:46:47;;;;;;;2.63;1.70;;;9.70;99.90;;;;;;5092095;28;20039;-62
2023/10/31 03:49:13;;;;;;;3.38;1.58;;;9.70;99.90;;;;;;5067129;28;20041;-62
2023/10/31 03:51:38;;;;;;;4.72;1.55;;;9.70;99.90;;;;;;5071401;28;20047;-61
2023/10/31 03:54:04;;;;;;;6.28;1.52;;;9.60;99.90;;;;;;5071804;28;20059;-62
2023/10/31 03:56:30;;;;;;;8.93;1.67;;;9.60;99.90;;;;;;5053800;28;20048;-62
2023/10/31 03:58:55;;;;;;;4.10;1.73;;;9.60;99.90;;;;;;5070334;28;20037;-62
2023/10/31 04:01:21;;;;;;;3.35;1.60;;;9.60;99.90;;;;;;5053294;28;20060;-62
2023/10/31 04:03:47;;;;;;;5.72;1.77;;;9.60;99.90;;;;;;5069954;28;20044;-62
2023/10/31 04:06:12;;;;;;;4.35;1.30;;;9.60;99.90;;;;;;5053061;28;20052;-62
2023/10/31 04:08:38;;;;;;;4.93;1.30;;;9.60;99.90;;;;;;5071486;28;20040;-62
2023/10/31 04:11:03;;;;;;;3.55;1.33;;;9.60;99.90;;;;;;5053852;28;20040;-62
2023/10/31 04:13:29;;;;;;;3.40;1.30;;;9.60;99.90;;;;;;5056989;28;20532;-62
2023/10/31 04:15:55;;;;;;;5.55;1.15;;;9.60;99.90;;;;;;5053615;28;20094;-62
2023/10/31 04:18:20;;;;;;;5.30;1.30;;;9.60;99.90;;;;;;5053151;28;20089;-62
2023/10/31 04:20:46;;;;;;;3.45;1.17;;;9.60;99.90;;;;;;5053344;28;20463;-62
2023/10/31 04:23:12;;;;;;;5.07;1.23;;;9.60;99.90;;;;;;5053030;28;20048;-62
2023/10/31 04:25:38;;;;;;;4.93;1.20;;;9.60;99.90;;;;;;5053269;28;20044;-62
2023/10/31 04:28:04;;;;;;;3.05;1.20;;;9.60;99.90;;;;;;5053265;28;20032;-62
2023/10/31 04:30:29;;;;;;;5.30;1.27;;;9.50;99.90;;;;;;5071354;28;20086;-62
2023/10/31 04:32:55;;;;;;;6.10;1.50;;;9.60;99.90;;;;;;5053312;28;20083;-62
2023/10/31 04:35:20;;;;;;;3.05;1.27;;;9.50;99.90;;;;;;5070787;28;20510;-62
2023/10/31 04:37:46;;;;;;;5.32;1.73;;;9.60;99.90;;;;;;5070947;28;20094;-62
2023/10/31 04:40:12;;;;;;;5.20;1.10;;;9.50;99.90;;;;;;5050319;28;20037;-64
2023/10/31 04:42:42;;;;;;;5.88;1.50;;;9.50;99.90;;;;;;5053146;28;20044;-62
2023/10/31 04:45:08;;;;;;;5.32;1.10;;;9.50;99.90;;;;;;5070759;28;20043;-62
2023/10/31 04:47:34;;;;;;;5.93;1.23;;;9.60;99.90;;;;;;5052812;28;20048;-62
2023/10/31 04:49:59;;;;;;;5.93;1.05;;;9.50;99.90;;;;;;5052951;28;20407;-62
2023/10/31 04:52:26;;;;;;;4.68;1.10;;;9.60;99.90;;;;;;5068576;28;20050;-62
2023/10/31 04:54:52;;;;;;;6.63;1.58;;;9.50;99.90;;;;;;5064073;28;20041;-61
2023/10/31 04:57:17;;;;;;;6.95;1.77;;;9.50;99.90;;;;;;5052695;28;20047;-62
2023/10/31 04:59:43;;;;;;;5.00;1.27;;;9.60;99.90;;;;;;5053811;28;20036;-62
2023/10/31 05:02:09;;;;;;;5.53;1.42;;;9.60;99.90;;;;;;5090817;28;20071;-62
2023/10/31 05:04:39;;;;;;;7.70;2.10;;;9.50;99.90;;;;;;5072729;28;20052;-62
2023/10/31 05:07:04;;;;;;;5.38;1.75;;;9.50;99.90;;;;;;5054242;28;20071;-62
2023/10/31 05:09:30;;;;;;;5.32;2.65;;;9.60;99.90;;;;;;5052559;28;20056;-62
2023/10/31 05:11:56;;;;;;;5.82;1.92;;;9.60;99.90;;;;;;5052157;28;20177;-62
2023/10/31 05:14:22;;;;;;;5.47;2.08;;;9.60;99.90;;;;;;5052230;28;20036;-62
2023/10/31 05:16:47;;;;;;;5.68;2.00;;;9.60;99.90;;;;;;5070302;28;20615;-62
2023/10/31 05:19:13;;;;;;;7.47;1.88;;;9.60;99.90;;;;;;5051709;28;20381;-62
2023/10/31 05:21:39;;;;;;;4.90;2.10;;;9.60;99.90;;;;;;5052375;28;20508;-61
2023/10/31 05:24:05;;;;;;;4.85;1.70;;;9.70;99.90;;;;;;5052736;28;20075;-62
2023/10/31 05:26:31;;;;;;;6.18;1.77;;;9.60;99.90;;;;;;5052179;28;20440;-62
2023/10/31 05:28:57;;;;;;;5.57;1.40;;;9.60;99.90;;;;;;5052574;28;20056;-62
2023/10/31 05:31:24;;;;;;;6.90;1.40;;;9.60;99.90;;;;;;5070187;28;20135;-62
2023/10/31 05:33:52;;;;;;;2.70;1.10;;;9.70;99.90;;;;;;5051873;28;20032;-62
2023/10/31 05:36:22;;;;;;;2.40;1.15;;;9.70;99.90;;;;;;5035520;28;20028;-62
2023/10/31 05:38:48;;;;;;;4.15;1.52;;;9.70;99.90;;;;;;5034931;28;20036;-62
2023/10/31 05:41:14;;;;;;;2.42;0.90;;;9.70;99.90;;;;;;5052020;28;20094;-62
2023/10/31 05:43:40;;;;;;;5.55;1.05;;;9.70;99.90;;;;;;5052399;28;20445;-62
2023/10/31 05:46:06;;;;;;;2.92;1.10;;;9.70;99.90;;;;;;5035051;28;20048;-62
2023/10/31 05:48:32;;;;;;;2.22;0.90;;;9.70;99.90;;;;;;5069852;28;20093;-62
2023/10/31 05:50:58;;;;;;;5.22;1.00;;;9.70;99.90;;;;;;5052022;28;20076;-62
2023/10/31 05:53:23;;;;;;;6.88;1.20;;;9.70;99.90;;;;;;5052250;28;20064;-63
2023/10/31 05:55:49;;;;;;;4.55;1.10;;;9.70;99.90;;;;;;5069989;28;20089;-62
2023/10/31 05:58:14;;;;;;;2.25;0.85;;;9.70;99.90;;;;;;5051874;28;20515;-62
2023/10/31 06:00:40;;;;;;;2.95;0.90;;;9.70;99.90;;;;;;5051661;28;20116;-62
2023/10/31 06:03:06;;;;;;;4.30;1.08;;;9.60;99.90;;;;;;5052403;28;20036;-62
2023/10/31 06:05:31;;;;;;;3.05;0.90;;;9.60;99.90;;;;;;5051860;28;20040;-62
2023/10/31 06:07:57;;;;;;;3.42;0.80;;;9.60;99.90;;;;;;5069542;28;20102;-62
2023/10/31 06:10:22;;;;;;;1.58;0.95;;;9.60;99.90;;;;;;5051761;28;20044;-62
2023/10/31 06:12:48;;;;;;;2.05;0.80;;;9.60;99.90;;;;;;5052182;28;20037;-62
2023/10/31 06:15:14;;;;;;;2.20;0.90;;;9.50;99.90;;;;;;5069817;28;20043;-62
2023/10/31 06:17:39;;;;;;;3.53;1.00;;;9.60;99.90;;;;;;5051845;28;20131;-62
2023/10/31 06:20:08;;;;;;;3.05;1.13;;;9.60;99.90;;;;;;5069548;28;20036;-62
2023/10/31 06:22:33;;;;;;;3.22;1.02;;;9.60;99.90;;;;;;5051769;28;20040;-62
2023/10/31 06:24:59;;;;;;;2.50;1.23;;;9.60;99.90;;;;;;5051836;28;20032;-61
2023/10/31 06:27:25;;;;;;;3.55;1.48;;;9.60;99.90;;;;;;5070394;28;20132;-61
2023/10/31 06:29:50;;;;;;;2.80;1.20;;;9.60;99.90;;;;;;5053499;28;20044;-62
2023/10/31 06:32:16;;;;;;;3.10;1.30;;;9.70;99.90;;;;;;5055161;28;20042;-62
2023/10/31 06:34:41;;;;;;;3.22;1.23;;;9.60;99.90;;;;;;5055046;28;20392;-62
2023/10/31 06:37:07;;;;;;;4.65;1.60;;;9.70;99.90;;;;;;5072945;28;20032;-62
2023/10/31 06:39:33;;;;;;;5.90;1.70;;;9.70;99.90;;;;;;5072505;28;20676;-62
2023/10/31 06:41:58;;;;;;;4.32;1.50;;;9.70;99.90;;;;;;5072242;28;20036;-61
2023/10/31 06:44:24;;;;;;;6.03;1.65;;;9.70;99.90;;;;;;5053456;28;20044;-62
2023/10/31 06:46:49;;;;;;;5.22;1.80;;;9.70;99.90;;;;;;5073020;28;20479;-62
2023/10/31 06:49:15;;;;;;;4.78;1.85;;;9.70;99.90;;;;;;5054914;28;20550;-62
2023/10/31 06:51:41;;;;;;;3.33;1.85;;;9.70;99.90;;;;;;5054415;28;20046;-62
2023/10/31 06:54:07;;;;;;;4.80;1.85;;;9.80;99.90;;;;;;5065861;28;20040;-62
2023/10/31 06:56:32;;;;;;;4.88;2.15;;;9.70;99.90;;;;;;5069878;28;20489;-63
2023/10/31 06:58:58;;;;;;;4.70;1.85;;;9.80;99.90;;;;;;5037763;28;20049;-62
2023/10/31 07:01:24;;;;;;;5.15;1.80;;;9.80;99.90;;;;;;5054494;28;20040;-63
2023/10/31 07:03:50;;;;;;;5.15;1.77;;;9.80;99.90;;;;;;5053361;28;20123;-61
2023/10/31 07:06:15;;;;;;;5.30;1.90;;;9.80;99.90;;;;;;5072268;28;20106;-61
2023/10/31 07:08:41;;;;;;;6.20;1.67;;;9.90;99.90;;;;;;5054512;28;20044;-61
2023/10/31 07:11:07;;;;;;;3.67;1.65;;;9.80;99.90;;;;;;5055472;28;20032;-61
2023/10/31 07:13:32;;;;;;;4.82;1.50;;;9.90;99.90;;;;;;5054241;28;20041;-61
2023/10/31 07:15:58;;;;;;;5.30;1.80;;;9.90;99.90;;;;;;5054494;28;20052;-61
2023/10/31 07:18:24;;;;;;;4.68;1.70;;;9.90;99.90;;;;;;5054143;28;20068;-61
2023/10/31 07:20:49;;;;;;;5.65;1.90;;;9.90;99.90;;;;;;5054214;28;20140;-60
2023/10/31 07:23:15;;;;;;;6.78;1.80;;;10.00;99.90;;;;;;5053169;28;20610;-61
2023/10/31 07:25:41;;;;;;;4.20;1.65;;;10.00;99.90;;;;;;5053786;28;20072;-61
2023/10/31 07:28:06;;;;;;;3.42;1.58;;;10.00;99.90;;;;;;5053393;28;20124;-61
2023/10/31 07:30:32;;;;;;;3.65;1.30;;;10.10;99.90;;;;;;5072113;28;20167;-61
2023/10/31 07:32:58;;;;;;;3.47;1.73;;;10.10;99.90;;;;;;5071955;28;20032;-61
2023/10/31 07:35:24;;;;;;;4.90;1.80;;;10.10;99.90;;;;;;5071353;28;20433;-61
2023/10/31 07:37:49;;;;;;;2.15;1.48;;;10.10;99.90;;;;;;5052299;28;20122;-61
2023/10/31 07:40:15;;;;;;;7.18;1.65;;;10.10;99.90;;;;;;5070305;28;20398;-61
2023/10/31 07:42:41;;;;;;;5.00;1.40;;;10.10;99.90;;;;;;5053179;28;20489;-60
2023/10/31 07:45:07;;;;;;;2.45;1.50;;;10.20;99.90;;;;;;5053840;28;20110;-61
2023/10/31 07:47:32;;;;;;;4.07;1.30;;;10.20;99.90;;;;;;5053191;28;20480;-61
2023/10/31 07:49:58;;;;;;;3.38;1.38;;;10.20;99.90;;;;;;5071739;28;20052;-61
2023/10/31 07:52:24;;;;;;;4.30;1.50;;;10.20;99.90;;;;;;5053700;28;20115;-61
2023/10/31 07:54:50;;;;;;;6.97;1.70;;;10.20;99.90;;;;;;5053714;28;20123;-61
2023/10/31 07:57:15;;;;;;;2.30;1.17;;;10.30;99.90;;;;;;5053476;28;20480;-61
2023/10/31 07:59:41;;;;;;;5.70;1.55;;;10.30;99.90;;;;;;5053725;28;20045;-61
2023/10/31 08:02:07;;;;;;;1.88;1.13;;;10.40;99.90;;;;;;5071481;28;20407;-61
2023/10/31 08:04:32;;;;;;;4.45;1.40;;;10.50;99.90;;;;;;5053722;28;20032;-61
2023/10/31 08:06:58;;;;;;;5.30;1.30;;;10.50;99.90;;;;;;5053295;28;20122;-61
2023/10/31 08:09:24;;;;;;;5.35;1.48;;;10.60;99.90;;;;;;5053636;28;20040;-61
2023/10/31 08:11:49;;;;;;;5.00;1.10;;;10.60;99.90;;;;;;5053736;28;20154;-61
2023/10/31 08:14:15;;;;;;;5.90;1.10;;;10.60;99.90;;;;;;5071241;28;20036;-61
2023/10/31 08:16:42;;;;;;;5.68;1.10;;;10.60;99.90;;;;;;5053540;28;20044;-61
2023/10/31 08:19:07;;;;;;;3.55;1.20;;;10.70;99.90;;;;;;5035731;28;20044;-61
2023/10/31 08:21:35;;;;;;;6.13;1.40;;;10.70;99.90;;;;;;5071150;28;20048;-61
2023/10/31 08:24:04;;;;;;;2.70;0.82;;;10.80;99.90;;;;;;5071321;28;20502;-61
2023/10/31 08:26:31;;;;;;;3.78;1.00;;;10.90;99.90;;;;;;5036410;28;20392;-62
2023/10/31 08:28:56;;;;;;;6.53;0.90;;;10.90;99.90;;;;;;5052521;28;20122;-62
2023/10/31 08:31:22;;;;;;;5.47;1.23;;;11.00;99.90;;;;;;5053126;28;20499;-62
2023/10/31 08:33:47;;;;;;;3.40;0.90;;;11.00;99.90;;;;;;5052037;28;20032;-62
2023/10/31 08:36:13;;;;;;;4.32;0.90;;;11.00;99.90;;;;;;5052540;28;20399;-62
2023/10/31 08:38:39;;;;;;;4.55;0.80;;;11.10;99.90;;;;;;5052941;28;20048;-62
2023/10/31 08:41:05;;;;;;;2.47;0.90;;;11.10;99.90;;;;;;5051309;28;20040;-62
2023/10/31 08:43:30;;;;;;;5.57;0.95;;;11.20;99.90;;;;;;5052622;28;20048;-62
2023/10/31 08:45:56;;;;;;;4.28;0.70;;;11.30;99.90;;;;;;5052985;28;20391;-62
2023/10/31 08:48:22;;;;;;;4.32;0.88;;;11.40;99.90;;;;;;5052667;28;20063;-62
2023/10/31 08:50:48;;;;;;;2.97;0.80;;;11.40;99.90;;;;;;5051933;28;20120;-62
2023/10/31 08:53:14;;;;;;;2.25;0.57;;;11.50;99.90;;;;;;5052194;28;20047;-62
2023/10/31 08:55:40;;;;;;;1.65;0.60;;;11.60;99.90;;;;;;5052126;28;20119;-63
2023/10/31 08:58:05;;;;;;;3.55;0.65;;;11.70;99.90;;;;;;5051951;28;20461;-63
2023/10/31 09:00:31;;;;;;;3.55;0.80;;;11.70;99.90;;;;;;5035368;28;20163;-63
2023/10/31 09:02:57;;;;;;;2.65;0.70;;;11.90;99.90;;;;;;5069776;28;20051;-63
2023/10/31 09:05:22;;;;;;;2.30;0.50;;;12.00;99.90;;;;;;5052248;28;20036;-63
2023/10/31 09:07:48;;;;;;;4.80;1.17;;;11.90;99.90;;;;;;5049262;28;20040;-63
2023/10/31 09:10:14;;;;;;;1.88;0.50;;;12.00;99.90;;;;;;5051351;28;20090;-63
2023/10/31 09:12:39;;;;;;;2.80;0.43;;;12.10;99.90;;;;;;5051832;28;20403;-63
2023/10/31 09:15:05;;;;;;;3.28;0.70;;;12.20;99.90;;;;;;5034374;28;20102;-64
2023/10/31 09:17:31;;;;;;;1.05;0.40;;;12.30;99.90;;;;;;5052031;28;20055;-63
2023/10/31 09:19:56;;;;;;;2.05;0.40;;;12.30;99.90;;;;;;5048920;28;20558;-63
2023/10/31 09:22:22;;;;;;;5.82;0.68;;;12.30;99.90;;;;;;5052674;28;20364;-63
2023/10/31 09:24:48;;;;;;;6.65;0.50;;;12.30;99.90;;;;;;5050558;28;20047;-63
2023/10/31 09:27:13;;;;;;;3.72;0.85;;;12.20;99.90;;;;;;5069839;28;20388;-63
2023/10/31 09:29:40;;;;;;;3.70;0.47;;;12.20;99.90;;;;;;5050826;28;20132;-63
2023/10/31 09:32:06;;;;;;;3.08;0.60;;;12.20;99.90;;;;;;5051517;28;20040;-63
2023/10/31 09:34:32;;;;;;;2.13;0.50;;;12.20;99.90;;;;;;5051319;28;20044;-63
2023/10/31 09:36:58;;;;;;;2.08;0.40;;;12.30;99.90;;;;;;5069573;28;20480;-63
2023/10/31 09:39:24;;;;;;;4.95;0.60;;;12.40;99.90;;;;;;5068899;28;20048;-63
2023/10/31 09:41:49;;;;;;;3.65;0.50;;;12.50;99.90;;;;;;5051152;28;20036;-63
2023/10/31 09:44:15;;;;;;;4.70;0.40;;;12.60;99.90;;;;;;5069887;28;20089;-63
2023/10/31 09:46:41;;;;;;;4.82;0.47;;;12.80;99.90;;;;;;5051266;28;20407;-61
2023/10/31 09:49:08;;;;;;;5.60;1.00;;;12.90;99.90;;;;;;5050567;28;20043;-62
2023/10/31 09:51:34;;;;;;;4.55;0.50;;;13.00;99.90;;;;;;5049825;28;20123;-62
2023/10/31 09:54:02;;;;;;;4.78;0.47;;;13.20;99.90;;;;;;5051488;28;20115;-62
2023/10/31 09:56:34;;;;;;;2.35;0.73;;;13.50;99.90;;;;;;5068053;28;20044;-62
2023/10/31 09:59:00;;;;;;;3.53;0.60;;;13.60;99.90;;;;;;5053017;28;20033;-62
2023/10/31 10:01:26;;;;;;;1.95;0.47;;;13.70;99.90;;;;;;5049833;28;20382;-61
2023/10/31 10:03:54;;;;;;;2.22;0.30;;;13.70;99.90;;;;;;5080655;28;20039;-62
2023/10/31 10:06:23;;;;;;;2.97;0.32;;;13.80;99.90;;;;;;5069828;28;20056;-62
2023/10/31 10:08:49;;;;;;;1.27;0.30;;;13.60;99.90;;;;;;5062718;28;20079;-62
2023/10/31 10:11:15;;;;;;;3.42;0.30;;;13.30;99.90;;;;;;5053284;28;20032;-62
2023/10/31 10:13:41;;;;;;;0.88;0.20;;;13.10;99.90;;;;;;5049097;28;20045;-62
2023/10/31 10:16:07;;;;;;;3.20;0.25;;;12.90;99.90;;;;;;5067757;28;20448;-62
2023/10/31 10:18:35;;;;;;;1.45;0.15;;;12.80;99.90;;;;;;5049957;28;20051;-63
2023/10/31 10:21:02;;;;;;;0.17;0.10;;;12.80;99.90;;;;;;5048982;28;20036;-62
2023/10/31 10:23:29;;;;;;;0.15;0.10;;;12.60;99.90;;;;;;5049858;28;20557;-62
2023/10/31 10:25:57;;;;;;;1.73;0.30;;;12.70;99.90;;;;;;5048331;28;20032;-62
2023/10/31 10:28:26;;;;;;;0.22;0.10;;;12.60;99.90;;;;;;5048025;28;20555;-63
2023/10/31 10:30:53;;;;;;;0.50;0.17;;;12.70;99.90;;;;;;5066701;28;20430;-62
2023/10/31 10:33:19;;;;;;;1.48;0.20;;;12.70;99.90;;;;;;5067961;28;20507;-63
2023/10/31 10:35:46;;;;;;;0.90;0.15;;;12.80;99.90;;;;;;5050070;28;20115;-62
2023/10/31 10:38:16;;;;;;;1.60;0.30;;;13.00;99.90;;;;;;5050624;28;20048;-62
2023/10/31 10:40:49;;;;;;;0.95;0.20;;;13.00;99.90;;;;;;5048693;28;20048;-62
2023/10/31 10:43:22;;;;;;;1.27;0.10;;;13.10;99.90;;;;;;5050654;28;20050;-62
2023/10/31 10:45:57;;;;;;;0.40;0.10;;;13.10;99.90;;;;;;5049587;28;20537;-62
2023/10/31 10:48:25;;;;;;;1.45;0.20;;;13.10;99.90;;;;;;5045933;28;20052;-62
2023/10/31 10:50:59;;;;;;;0.60;0.10;;;13.00;99.90;;;;;;5067429;28;20040;-62
2023/10/31 10:53:30;;;;;;;0.60;0.17;;;12.80;99.90;;;;;;5048496;28;20040;-62
2023/10/31 10:56:08;;;;;;;2.33;0.20;;;12.70;99.90;;;;;;5048404;28;20049;-62
2023/10/31 10:58:46;;;;;;;1.30;0.15;;;12.70;99.90;;;;;;5062524;28;20682;-63
2023/10/31 11:01:13;;;;;;;0.57;0.20;;;12.60;99.90;;;;;;5047695;28;20131;-62
2023/10/31 11:03:39;;;;;;;1.42;0.20;;;12.50;99.90;;;;;;5047826;28;20411;-62
2023/10/31 11:06:06;;;;;;;1.40;0.30;;;12.40;99.90;;;;;;5048007;28;20131;-63
2023/10/31 11:08:33;;;;;;;0.17;0.17;;;12.40;99.90;;;;;;5046838;28;20115;-62
2023/10/31 11:10:59;;;;;;;1.08;0.28;;;12.30;99.90;;;;;;5063825;28;20044;-63
2023/10/31 11:13:25;;;;;;;0.40;0.20;;;12.30;99.90;;;;;;5047051;28;20028;-63
2023/10/31 11:16:01;;;;;;;3.03;0.45;;;12.20;99.90;;;;;;5048372;28;20111;-63
2023/10/31 11:18:27;;;;;;;0.30;0.17;;;12.20;99.90;;;;;;5047831;28;20048;-63
2023/10/31 11:20:53;;;;;;;2.05;0.30;;;12.10;99.90;;;;;;5061715;28;20071;-63
2023/10/31 11:23:20;;;;;;;0.82;0.20;;;12.10;99.90;;;;;;5048441;28;20126;-63
2023/10/31 11:25:50;;;;;;;1.88;0.25;;;12.10;99.90;;;;;;5033205;28;20119;-64
2023/10/31 11:28:17;;;;;;;2.20;0.30;;;12.20;99.90;;;;;;5046801;28;20052;-63
2023/10/31 11:30:45;;;;;;;1.48;0.30;;;12.30;99.90;;;;;;5048548;28;20391;-63
2023/10/31 11:33:16;;;;;;;0.30;0.15;;;12.50;99.90;;;;;;5047232;28;21390;-63
2023/10/31 11:35:44;;;;;;;0.10;0.10;;;12.80;99.90;;;;;;5063208;28;20062;-63
2023/10/31 11:38:11;;;;;;;1.52;0.20;;;13.10;99.90;;;;;;5048783;28;20090;-62
2023/10/31 11:40:49;;;;;;;1.05;0.28;;;13.40;99.90;;;;;;5047843;28;20143;-63
2023/10/31 11:43:15;;;;;;;0.63;0.20;;;13.60;99.90;;;;;;5045103;28;20048;-62
2023/10/31 11:45:47;;;;;;;1.25;0.30;;;13.80;99.90;;;;;;5066224;28;20453;-63
2023/10/31 11:48:12;;;;;;;0.17;0.10;;;13.90;99.90;;;;;;5066793;28;20072;-63
2023/10/31 11:50:39;;;;;;;0.30;0.30;;;13.90;99.90;;;;;;5047755;28;20333;-63
2023/10/31 11:53:13;;;;;;;0.20;0.10;;;13.90;99.90;;;;;;5049527;28;20131;-63
2023/10/31 11:55:46;;;;;;;0.63;0.20;;;13.70;99.90;;;;;;5047549;28;20048;-62
2023/10/31 11:58:23;;;;;;;0.10;0.10;;;13.40;99.90;;;;;;5068735;28;20036;-62
2023/10/31 12:00:50;;;;;;;0.75;0.20;;;13.20;99.90;;;;;;5047945;28;20079;-62
2023/10/31 12:03:18;;;;;;;2.35;0.20;;;13.10;99.90;;;;;;5064998;28;20052;-62
2023/10/31 12:05:54;;;;;;;0.32;0.10;;;12.90;99.90;;;;;;5048099;28;20048;-62
2023/10/31 12:08:31;;;;;;;0.60;0.20;;;12.90;99.90;;;;;;5031100;28;20048;-62
2023/10/31 12:11:06;;;;;;;1.20;0.10;;;12.80;99.90;;;;;;5064524;28;20076;-62
2023/10/31 12:13:34;;;;;;;0.60;0.10;;;12.70;99.90;;;;;;5047854;28;20036;-62
2023/10/31 12:16:01;;;;;;;0.10;0.10;;;12.60;99.90;;;;;;5030484;28;20413;-63
2023/10/31 12:18:30;;;;;;;1.20;0.10;;;12.60;99.90;;;;;;5047383;28;20127;-62
2023/10/31 12:20:56;;;;;;;1.08;0.10;;;12.50;99.90;;;;;;5047202;28;20075;-62
2023/10/31 12:23:21;;;;;;;0.30;0.10;;;12.60;99.90;;;;;;5065816;28;20044;-63
2023/10/31 12:25:51;;;;;;;1.00;0.20;;;12.70;99.90;;;;;;5045881;28;20048;-62
2023/10/31 12:28:24;;;;;;;0.77;0.20;;;12.80;99.90;;;;;;5050734;28;20052;-63
2023/10/31 12:30:54;;;;;;;0.68;0.10;;;12.90;99.90;;;;;;5047347;28;20071;-62
2023/10/31 12:33:21;;;;;;;0.40;0.20;;;13.10;99.90;;;;;;5045139;28;20055;-63
2023/10/31 12:35:49;;;;;;;2.67;1.30;;;13.20;99.90;;;;;;5030562;28;20075;-62
2023/10/31 12:38:15;;;;;;;0.20;0.10;;;13.40;99.90;;;;;;5045909;28;20089;-62
2023/10/31 12:40:43;;;;;;;1.33;0.20;;;13.60;99.90;;;;;;5066393;28;20045;-62
2023/10/31 12:43:09;;;;;;;1.23;0.30;;;13.70;99.90;;;;;;5048721;28;20044;-62
2023/10/31 12:45:36;;;;;;;1.63;0.30;;;13.70;99.90;;;;;;5044687;28;20397;-61